M\t Eviapetrol III — SVA3278 — position and weather

sailwx.info

Track history (hours):
 
Tides and Currents Weather Stations Pressure Air Temp Water Temp Dewpoint Dewpoint Depression Visibility Wind Speed Wind Dir Waves Ship Positions

M\t Eviapetrol III

Last reported at 2017-Nov-24 12:59 UTC. Time now 2017-Nov-24 13:06 UTC.
Position N 38°02' E 023°36'.

Length 78 m; draft 4.4 m.

Type: Tanker. MMSI: 240949000.

Date/timePositionNaut miles runAvg speedWind from/ knotsBaromVisibWave heightAir tempDewpointWater temp
2017-Nov-24 12:59N 38°02' E 023°36'0 0.0
2017-Nov-24 12:29N 38°02' E 023°36'0 0.0
2017-Nov-24 11:59N 38°02' E 023°36'0 0.0
2017-Nov-24 11:29N 38°02' E 023°36'0 0.0
2017-Nov-24 10:53N 38°02' E 023°36'0 0.0
2017-Nov-24 10:29N 38°02' E 023°36'0 0.0
2017-Nov-24 09:47N 38°02' E 023°36'0 0.0
2017-Nov-24 09:23N 38°02' E 023°36'0 0.0
2017-Nov-24 09:00N 38°02' E 023°36'1 1.3
2017-Nov-24 08:30N 38°02' E 023°35'2 4.5
2017-Nov-24 08:00N 38°00' E 023°33'4 7.7
2017-Nov-24 07:30N 37°57' E 023°35'3 5.2
2017-Nov-24 07:01N 37°55' E 023°37'4 7.7
2017-Nov-24 06:31N 37°51' E 023°39'510.0
2017-Nov-24 06:00N 37°47' E 023°42'510.0
2017-Nov-24 05:30N 37°42' E 023°45'5 9.2
2017-Nov-24 05:00N 37°39' E 023°49'510.1
2017-Nov-24 04:30N 37°38' E 023°55'5 9.9
2017-Nov-24 04:00N 37°38' E 024°02'5 9.5
2017-Nov-24 03:30N 37°38' E 024°07'510.4
2017-Nov-24 03:01N 37°42' E 024°11'510.2
2017-Nov-24 02:30N 37°47' E 024°15'5 9.3
2017-Nov-24 01:58N 37°50' E 024°19'4 9.8
2017-Nov-24 01:31N 37°52' E 024°24'5 9.8
2017-Nov-24 01:01N 37°54' E 024°30'5 9.9
2017-Nov-24 00:30N 37°55' E 024°37'35 9.7
2017-Nov-23 20:51N 38°30' E 024°43'510.3
2017-Nov-23 20:20N 38°35' E 024°44'310.5
2017-Nov-23 20:01N 38°38' E 024°44'1010.4
2017-Nov-23 19:03N 38°48' E 024°47'110.6
2017-Nov-23 18:56N 38°49' E 024°47'410.2
2017-Nov-23 18:31N 38°54' E 024°48'510.1
2017-Nov-23 17:59N 38°59' E 024°49'66 9.9
2017-Nov-23 11:19N 40°04' E 025°02'610.2
2017-Nov-23 10:46N 40°09' E 025°06'310.3
2017-Nov-23 10:27N 40°12' E 025°07'510.4
2017-Nov-23 09:58N 40°16' E 025°11'1710.3
2017-Nov-23 08:21N 40°30' E 025°23'  
2017-Nov-19 22:23N 38°02' E 023°36'0 0.0
2017-Nov-19 22:00N 38°02' E 023°36'0 0.8
2017-Nov-19 21:30N 38°02' E 023°35'0 0.2
2017-Nov-19 21:00N 38°02' E 023°35'0 0.0
2017-Nov-19 20:30N 38°02' E 023°35'0 0.4
2017-Nov-19 20:00N 38°02' E 023°35'3 6.6
2017-Nov-19 19:30N 38°01' E 023°31'4 8.5
2017-Nov-19 19:01N 37°60' E 023°26'3 5.1
2017-Nov-19 18:31N 37°57' E 023°24'4 8.1
2017-Nov-19 18:00N 37°54' E 023°22'5 9.7
2017-Nov-19 17:30N 37°51' E 023°27'5 9.6
2017-Nov-19 17:01N 37°51' E 023°33'5 9.9
2017-Nov-19 16:30N 37°50' E 023°40'510.4
2017-Nov-19 16:00N 37°46' E 023°43'510.4
2017-Nov-19 15:30N 37°41' E 023°45'510.2
2017-Nov-19 15:00N 37°37' E 023°50'810.1
2017-Nov-19 14:13N 37°32' E 023°56'  
2017-Nov-17 01:33N 37°33' E 023°53'2 9.5
2017-Nov-17 01:21N 37°34' E 023°51'3 9.6
2017-Nov-17 01:00N 37°35' E 023°47'5 9.8
2017-Nov-17 00:30N 37°38' E 023°42'510.1
2017-Nov-17 00:00N 37°43' E 023°39'510.2
2017-Nov-16 23:30N 37°48' E 023°37'4 8.8
2017-Nov-16 23:00N 37°50' E 023°32'5 9.6
2017-Nov-16 22:30N 37°51' E 023°26'5 9.1
2017-Nov-16 22:00N 37°53' E 023°22'5 9.9
2017-Nov-16 21:30N 37°58' E 023°25'2 4.9
2017-Nov-16 21:01N 37°60' E 023°26'4 7.0
2017-Nov-16 20:30N 38°01' E 023°30'2 4.1
2017-Nov-16 20:00N 38°01' E 023°33'3 4.4
2017-Nov-16 19:26N 38°02' E 023°36'0 0.1
2017-Nov-16 18:59N 38°02' E 023°36'0 0.0
2017-Nov-16 18:29N 38°02' E 023°36'0 0.0
2017-Nov-16 17:59N 38°02' E 023°36'0 0.0
2017-Nov-16 17:29N 38°02' E 023°36'0 0.0
2017-Nov-16 16:59N 38°02' E 023°36'0 0.0
2017-Nov-16 16:29N 38°02' E 023°36'0 0.0
2017-Nov-16 15:56N 38°02' E 023°36'0 0.0
2017-Nov-16 15:29N 38°02' E 023°36'0 0.0
2017-Nov-16 14:59N 38°02' E 023°36'0 0.0
2017-Nov-16 14:29N 38°02' E 023°36'0 0.0
2017-Nov-16 13:59N 38°02' E 023°36'0 0.0
2017-Nov-16 13:29N 38°02' E 023°36'0 0.0
2017-Nov-16 12:59N 38°02' E 023°36'0 0.0
2017-Nov-16 12:29N 38°02' E 023°36'0 0.0
2017-Nov-16 11:53N 38°02' E 023°36'0 0.0
2017-Nov-16 11:26N 38°02' E 023°36'0 0.0
2017-Nov-16 10:59N 38°02' E 023°36'0 0.0
2017-Nov-16 10:29N 38°02' E 023°36'0 0.0
2017-Nov-16 09:59N 38°02' E 023°36'0 0.0
2017-Nov-16 09:26N 38°02' E 023°36'0 0.0
2017-Nov-16 08:56N 38°02' E 023°36'0 0.0
2017-Nov-16 08:29N 38°02' E 023°36'0 0.0
2017-Nov-16 07:59N 38°02' E 023°36'0 0.0
2017-Nov-16 07:29N 38°02' E 023°36'0 0.0
2017-Nov-16 06:59N 38°02' E 023°36'1 1.9
2017-Nov-16 06:30N 38°01' E 023°35'2 0.3
2017-Nov-15 23:33N 38°01' E 023°32'0 0.0
2017-Nov-15 22:24N 38°01' E 023°32'0 0.0
2017-Nov-15 15:16N 38°01' E 023°32'0 0.0
2017-Nov-15 15:00N 38°01' E 023°32'0 0.0
2017-Nov-15 14:30N 38°01' E 023°32'0 0.2
2017-Nov-15 14:00N 38°01' E 023°32'3 5.9
2017-Nov-15 13:30N 37°58' E 023°33'4 7.3
2017-Nov-15 13:00N 37°56' E 023°36'0 0.9
2017-Nov-15 12:30N 37°56' E 023°36'3 5.7
2017-Nov-15 12:00N 37°53' E 023°38'510.2
2017-Nov-15 11:30N 37°49' E 023°40'510.4
2017-Nov-15 11:00N 37°44' E 023°44'5 9.8
2017-Nov-15 10:30N 37°40' E 023°47'510.0
2017-Nov-15 10:00N 37°38' E 023°53'4210.0
2017-Nov-15 05:47N 37°24' E 024°44'311.1
2017-Nov-15 05:30N 37°23' E 024°47'611.2
2017-Nov-15 05:00N 37°21' E 024°54'510.3
2017-Nov-15 04:30N 37°19' E 024°60'5 9.9
2017-Nov-15 03:59N 37°18' E 025°06'510.5
2017-Nov-15 03:30N 37°17' E 025°12'510.6
2017-Nov-15 03:00N 37°16' E 025°19'510.6
2017-Nov-15 02:30N 37°15' E 025°25'510.7
2017-Nov-15 02:00N 37°14' E 025°32'510.5
2017-Nov-15 01:30N 37°13' E 025°38'510.4
2017-Nov-15 01:00N 37°12' E 025°45'  
Track history (hours):
 
Tides and Currents Weather Stations Pressure Air Temp Water Temp Dewpoint Dewpoint Depression Visibility Wind Speed Wind Dir Waves Ship Positions

M\t Eviapetrol III

Last reported at 2017-Nov-24 12:59 UTC. Time now 2017-Nov-24 13:06 UTC.
Position N 38°02' E 023°36'.

Length 78 m; draft 4.4 m.

Type: Tanker. MMSI: 240949000.

Date/timePositionNaut miles runAvg speedWind from/ knotsBaromVisibWave heightAir tempDewpointWater temp
2017-Nov-24 12:59N 38°02' E 023°36'0 0.0
2017-Nov-24 12:29N 38°02' E 023°36'0 0.0
2017-Nov-24 11:59N 38°02' E 023°36'0 0.0
2017-Nov-24 11:29N 38°02' E 023°36'0 0.0
2017-Nov-24 10:53N 38°02' E 023°36'0 0.0
2017-Nov-24 10:29N 38°02' E 023°36'0 0.0
2017-Nov-24 09:47N 38°02' E 023°36'0 0.0
2017-Nov-24 09:23N 38°02' E 023°36'0 0.0
2017-Nov-24 09:00N 38°02' E 023°36'1 1.3
2017-Nov-24 08:30N 38°02' E 023°35'2 4.5
2017-Nov-24 08:00N 38°00' E 023°33'4 7.7
2017-Nov-24 07:30N 37°57' E 023°35'3 5.2
2017-Nov-24 07:01N 37°55' E 023°37'4 7.7
2017-Nov-24 06:31N 37°51' E 023°39'510.0
2017-Nov-24 06:00N 37°47' E 023°42'510.0
2017-Nov-24 05:30N 37°42' E 023°45'5 9.2
2017-Nov-24 05:00N 37°39' E 023°49'510.1
2017-Nov-24 04:30N 37°38' E 023°55'5 9.9
2017-Nov-24 04:00N 37°38' E 024°02'5 9.5
2017-Nov-24 03:30N 37°38' E 024°07'510.4
2017-Nov-24 03:01N 37°42' E 024°11'510.2
2017-Nov-24 02:30N 37°47' E 024°15'5 9.3
2017-Nov-24 01:58N 37°50' E 024°19'4 9.8
2017-Nov-24 01:31N 37°52' E 024°24'5 9.8
2017-Nov-24 01:01N 37°54' E 024°30'5 9.9
2017-Nov-24 00:30N 37°55' E 024°37'35 9.7
2017-Nov-23 20:51N 38°30' E 024°43'510.3
2017-Nov-23 20:20N 38°35' E 024°44'310.5
2017-Nov-23 20:01N 38°38' E 024°44'1010.4
2017-Nov-23 19:03N 38°48' E 024°47'110.6
2017-Nov-23 18:56N 38°49' E 024°47'410.2
2017-Nov-23 18:31N 38°54' E 024°48'510.1
2017-Nov-23 17:59N 38°59' E 024°49'66 9.9
2017-Nov-23 11:19N 40°04' E 025°02'610.2
2017-Nov-23 10:46N 40°09' E 025°06'310.3
2017-Nov-23 10:27N 40°12' E 025°07'510.4
2017-Nov-23 09:58N 40°16' E 025°11'1710.3
2017-Nov-23 08:21N 40°30' E 025°23'  
2017-Nov-19 22:23N 38°02' E 023°36'0 0.0
2017-Nov-19 22:00N 38°02' E 023°36'0 0.8
2017-Nov-19 21:30N 38°02' E 023°35'0 0.2
2017-Nov-19 21:00N 38°02' E 023°35'0 0.0
2017-Nov-19 20:30N 38°02' E 023°35'0 0.4
2017-Nov-19 20:00N 38°02' E 023°35'3 6.6
2017-Nov-19 19:30N 38°01' E 023°31'4 8.5
2017-Nov-19 19:01N 37°60' E 023°26'3 5.1
2017-Nov-19 18:31N 37°57' E 023°24'4 8.1
2017-Nov-19 18:00N 37°54' E 023°22'5 9.7
2017-Nov-19 17:30N 37°51' E 023°27'5 9.6
2017-Nov-19 17:01N 37°51' E 023°33'5 9.9
2017-Nov-19 16:30N 37°50' E 023°40'510.4
2017-Nov-19 16:00N 37°46' E 023°43'510.4
2017-Nov-19 15:30N 37°41' E 023°45'510.2
2017-Nov-19 15:00N 37°37' E 023°50'810.1
2017-Nov-19 14:13N 37°32' E 023°56'  
2017-Nov-17 01:33N 37°33' E 023°53'2 9.5
2017-Nov-17 01:21N 37°34' E 023°51'3 9.6
2017-Nov-17 01:00N 37°35' E 023°47'5 9.8
2017-Nov-17 00:30N 37°38' E 023°42'510.1
2017-Nov-17 00:00N 37°43' E 023°39'510.2
2017-Nov-16 23:30N 37°48' E 023°37'4 8.8
2017-Nov-16 23:00N 37°50' E 023°32'5 9.6
2017-Nov-16 22:30N 37°51' E 023°26'5 9.1
2017-Nov-16 22:00N 37°53' E 023°22'5 9.9
2017-Nov-16 21:30N 37°58' E 023°25'2 4.9
2017-Nov-16 21:01N 37°60' E 023°26'4 7.0
2017-Nov-16 20:30N 38°01' E 023°30'2 4.1
2017-Nov-16 20:00N 38°01' E 023°33'3 4.4
2017-Nov-16 19:26N 38°02' E 023°36'0 0.1
2017-Nov-16 18:59N 38°02' E 023°36'0 0.0
2017-Nov-16 18:29N 38°02' E 023°36'0 0.0
2017-Nov-16 17:59N 38°02' E 023°36'0 0.0
2017-Nov-16 17:29N 38°02' E 023°36'0 0.0
2017-Nov-16 16:59N 38°02' E 023°36'0 0.0
2017-Nov-16 16:29N 38°02' E 023°36'0 0.0
2017-Nov-16 15:56N 38°02' E 023°36'0 0.0
2017-Nov-16 15:29N 38°02' E 023°36'0 0.0
2017-Nov-16 14:59N 38°02' E 023°36'0 0.0
2017-Nov-16 14:29N 38°02' E 023°36'0 0.0
2017-Nov-16 13:59N 38°02' E 023°36'0 0.0
2017-Nov-16 13:29N 38°02' E 023°36'0 0.0
2017-Nov-16 12:59N 38°02' E 023°36'0 0.0
2017-Nov-16 12:29N 38°02' E 023°36'0 0.0
2017-Nov-16 11:53N 38°02' E 023°36'0 0.0
2017-Nov-16 11:26N 38°02' E 023°36'0 0.0
2017-Nov-16 10:59N 38°02' E 023°36'0 0.0
2017-Nov-16 10:29N 38°02' E 023°36'0 0.0
2017-Nov-16 09:59N 38°02' E 023°36'0 0.0
2017-Nov-16 09:26N 38°02' E 023°36'0 0.0
2017-Nov-16 08:56N 38°02' E 023°36'0 0.0
2017-Nov-16 08:29N 38°02' E 023°36'0 0.0
2017-Nov-16 07:59N 38°02' E 023°36'0 0.0
2017-Nov-16 07:29N 38°02' E 023°36'0 0.0
2017-Nov-16 06:59N 38°02' E 023°36'1 1.9
2017-Nov-16 06:30N 38°01' E 023°35'2 0.3
2017-Nov-15 23:33N 38°01' E 023°32'0 0.0
2017-Nov-15 22:24N 38°01' E 023°32'0 0.0
2017-Nov-15 15:16N 38°01' E 023°32'0 0.0
2017-Nov-15 15:00N 38°01' E 023°32'0 0.0
2017-Nov-15 14:30N 38°01' E 023°32'0 0.2
2017-Nov-15 14:00N 38°01' E 023°32'3 5.9
2017-Nov-15 13:30N 37°58' E 023°33'4 7.3
2017-Nov-15 13:00N 37°56' E 023°36'0 0.9
2017-Nov-15 12:30N 37°56' E 023°36'3 5.7
2017-Nov-15 12:00N 37°53' E 023°38'510.2
2017-Nov-15 11:30N 37°49' E 023°40'510.4
2017-Nov-15 11:00N 37°44' E 023°44'5 9.8
2017-Nov-15 10:30N 37°40' E 023°47'510.0
2017-Nov-15 10:00N 37°38' E 023°53'4210.0
2017-Nov-15 05:47N 37°24' E 024°44'311.1
2017-Nov-15 05:30N 37°23' E 024°47'611.2
2017-Nov-15 05:00N 37°21' E 024°54'510.3
2017-Nov-15 04:30N 37°19' E 024°60'5 9.9
2017-Nov-15 03:59N 37°18' E 025°06'510.5
2017-Nov-15 03:30N 37°17' E 025°12'510.6
2017-Nov-15 03:00N 37°16' E 025°19'510.6
2017-Nov-15 02:30N 37°15' E 025°25'510.7
2017-Nov-15 02:00N 37°14' E 025°32'510.5
2017-Nov-15 01:30N 37°13' E 025°38'510.4
2017-Nov-15 01:00N 37°12' E 025°45'  

Dump ship's entire track history